createdAt,value
2018-12-06T00:00:12.500Z,6.70
2018-12-06T00:02:43.388Z,6.60
2018-12-06T00:05:12.386Z,6.70
2018-12-06T00:07:51.325Z,6.70
2018-12-06T00:10:20.128Z,6.70
2018-12-06T00:12:48.989Z,6.80
2018-12-06T00:15:26.008Z,6.70
2018-12-06T00:17:55.772Z,6.70
2018-12-06T00:20:24.592Z,6.70
2018-12-06T00:22:53.714Z,6.70
2018-12-06T00:25:22.524Z,6.70
2018-12-06T00:27:51.466Z,6.70
2018-12-06T00:30:42.724Z,6.80
2018-12-06T00:33:12.815Z,6.90
2018-12-06T00:35:41.622Z,6.90
2018-12-06T00:38:10.434Z,6.90
2018-12-06T00:40:39.239Z,7.00
2018-12-06T00:43:08.144Z,7.00
2018-12-06T00:45:36.954Z,7.00
2018-12-06T00:48:05.807Z,7.00
2018-12-06T00:50:34.618Z,7.10
2018-12-06T00:53:03.509Z,7.10
2018-12-06T00:55:32.346Z,7.10
2018-12-06T00:58:01.144Z,7.10
2018-12-06T01:00:30.038Z,7.10
2018-12-06T01:02:58.913Z,7.10
2018-12-06T01:05:27.739Z,7.10
2018-12-06T01:07:56.614Z,7.10
2018-12-06T01:10:25.418Z,7.20
2018-12-06T01:12:54.705Z,7.20
2018-12-06T01:15:23.514Z,7.20
2018-12-06T01:17:52.380Z,7.20
2018-12-06T01:20:21.278Z,7.20
2018-12-06T01:22:50.160Z,7.20
2018-12-06T01:25:19.058Z,7.20
2018-12-06T01:27:47.866Z,7.20
2018-12-06T01:30:16.662Z,7.30
2018-12-06T01:32:45.596Z,7.20
2018-12-06T01:35:14.403Z,7.20
2018-12-06T01:37:43.292Z,7.10
2018-12-06T01:40:12.079Z,7.10
2018-12-06T01:42:41.015Z,7.10
2018-12-06T01:45:09.940Z,7.10
2018-12-06T01:47:38.838Z,7.10
2018-12-06T01:50:08.088Z,7.10
2018-12-06T01:52:36.921Z,7.00
2018-12-06T01:55:06.264Z,7.00
2018-12-06T01:57:35.183Z,7.00
2018-12-06T02:00:05.781Z,6.90
2018-12-06T02:02:34.838Z,6.90
2018-12-06T02:05:04.006Z,6.90
2018-12-06T02:07:32.810Z,6.90
2018-12-06T02:10:01.604Z,7.00
2018-12-06T02:12:31.088Z,7.00
2018-12-06T02:14:59.908Z,7.00
2018-12-06T02:17:29.040Z,7.00
2018-12-06T02:19:57.784Z,7.00
2018-12-06T02:22:26.667Z,7.00
2018-12-06T02:24:55.500Z,7.00
2018-12-06T02:27:24.337Z,7.00
2018-12-06T02:29:54.092Z,7.00
2018-12-06T02:32:24.001Z,7.00
2018-12-06T02:34:52.886Z,7.10
2018-12-06T02:37:21.715Z,7.10
2018-12-06T02:40:19.916Z,7.10
2018-12-06T02:42:48.807Z,7.10
2018-12-06T02:45:17.608Z,7.10
2018-12-06T02:47:46.500Z,7.20
2018-12-06T02:50:15.335Z,7.20
2018-12-06T02:52:44.162Z,7.20
2018-12-06T02:55:13.046Z,7.20
2018-12-06T02:57:41.856Z,7.20
2018-12-06T03:00:11.324Z,7.20
2018-12-06T03:02:42.004Z,7.20
2018-12-06T03:05:10.842Z,7.10
2018-12-06T03:07:39.652Z,7.10
2018-12-06T03:10:08.704Z,7.10
2018-12-06T03:12:39.052Z,7.10
2018-12-06T03:15:08.058Z,7.20
2018-12-06T03:17:37.020Z,7.20
2018-12-06T03:20:06.891Z,7.20
2018-12-06T03:22:35.824Z,7.20
2018-12-06T03:25:05.168Z,7.20
2018-12-06T03:27:33.978Z,7.20
2018-12-06T03:30:03.000Z,7.30
2018-12-06T03:32:31.847Z,7.30
2018-12-06T03:35:00.722Z,7.30
2018-12-06T03:37:29.521Z,7.20
2018-12-06T03:39:58.345Z,7.20
2018-12-06T03:42:27.147Z,7.20
2018-12-06T03:44:55.947Z,7.20
2018-12-06T03:47:24.777Z,7.20
2018-12-06T03:49:53.570Z,7.20
2018-12-06T03:52:22.383Z,7.20
2018-12-06T03:54:51.219Z,7.20
2018-12-06T03:57:20.039Z,7.20
2018-12-06T03:59:48.834Z,7.20
2018-12-06T04:02:17.652Z,7.20
2018-12-06T04:04:46.571Z,7.20
2018-12-06T04:07:15.370Z,7.30
2018-12-06T04:09:44.269Z,7.30
2018-12-06T04:12:13.126Z,7.30
2018-12-06T04:14:42.276Z,7.40
2018-12-06T04:17:11.141Z,7.40
2018-12-06T04:19:40.078Z,7.40
2018-12-06T04:22:08.874Z,7.40
2018-12-06T04:24:37.665Z,7.50
2018-12-06T04:27:06.513Z,7.40
2018-12-06T04:29:35.355Z,7.40
2018-12-06T04:32:04.260Z,7.30
2018-12-06T04:34:33.106Z,7.30
2018-12-06T04:37:01.918Z,7.30
2018-12-06T04:39:30.728Z,7.30
2018-12-06T04:41:59.545Z,7.30
2018-12-06T04:44:28.335Z,7.30
2018-12-06T04:46:57.350Z,7.30
2018-12-06T04:49:26.196Z,7.30
2018-12-06T04:51:55.075Z,7.40
2018-12-06T04:54:23.866Z,7.40
2018-12-06T04:56:52.665Z,7.50
2018-12-06T04:59:21.485Z,7.50
2018-12-06T05:01:50.341Z,7.50
2018-12-06T05:04:19.272Z,7.50
2018-12-06T05:06:48.141Z,7.50
2018-12-06T05:09:17.053Z,7.60
2018-12-06T05:11:45.853Z,7.60
2018-12-06T05:14:14.768Z,7.60
2018-12-06T05:16:43.565Z,7.60
2018-12-06T05:19:12.442Z,7.60
2018-12-06T05:21:41.375Z,7.60
2018-12-06T05:24:10.237Z,7.60
2018-12-06T05:26:39.061Z,7.60
2018-12-06T05:29:07.885Z,7.60
2018-12-06T05:31:36.691Z,7.60
2018-12-06T05:34:05.491Z,7.60
2018-12-06T05:36:34.277Z,7.60
2018-12-06T05:39:03.283Z,7.60
2018-12-06T05:41:34.107Z,7.60
2018-12-06T05:44:02.997Z,7.60
2018-12-06T05:46:31.793Z,7.70
2018-12-06T05:49:00.596Z,7.70
2018-12-06T05:51:29.407Z,7.70
2018-12-06T05:53:58.201Z,7.70
2018-12-06T05:56:27.019Z,7.70
2018-12-06T05:58:55.813Z,7.70
2018-12-06T06:01:24.725Z,7.70
2018-12-06T06:03:53.902Z,7.70
2018-12-06T06:06:22.721Z,7.70
2018-12-06T06:08:51.634Z,7.70
2018-12-06T06:11:20.457Z,7.70
2018-12-06T06:13:49.291Z,7.60
2018-12-06T06:16:18.207Z,7.60
2018-12-06T06:18:47.020Z,7.60
2018-12-06T06:21:15.847Z,7.60
2018-12-06T06:23:44.665Z,7.60
2018-12-06T06:26:13.545Z,7.60
2018-12-06T06:28:43.310Z,7.50
2018-12-06T06:31:12.184Z,7.50
2018-12-06T06:33:40.987Z,7.50
2018-12-06T06:36:10.367Z,7.50
2018-12-06T06:38:39.168Z,7.60
2018-12-06T06:41:07.969Z,7.60
2018-12-06T06:43:36.789Z,7.60
2018-12-06T06:46:05.671Z,7.60
2018-12-06T06:48:34.538Z,7.60
2018-12-06T06:51:03.478Z,7.60
2018-12-06T06:53:32.327Z,7.60
2018-12-06T06:56:01.115Z,7.60
2018-12-06T06:58:29.920Z,7.60
2018-12-06T07:00:58.753Z,7.60
2018-12-06T07:03:28.585Z,7.60
2018-12-06T07:05:57.389Z,7.60
2018-12-06T07:08:26.220Z,7.60
2018-12-06T07:10:55.042Z,7.60
2018-12-06T07:13:23.845Z,7.60
2018-12-06T07:15:52.866Z,7.70
2018-12-06T07:18:21.737Z,7.70
2018-12-06T07:20:50.622Z,7.70
2018-12-06T07:23:20.189Z,7.80
2018-12-06T07:25:49.270Z,7.80
2018-12-06T07:28:18.893Z,7.70
2018-12-06T07:30:49.327Z,7.70
2018-12-06T07:33:18.144Z,7.70
2018-12-06T07:35:47.817Z,7.70
2018-12-06T07:38:16.710Z,7.80
2018-12-06T07:40:45.859Z,7.90
2018-12-06T07:43:14.735Z,7.90
2018-12-06T07:45:43.723Z,7.90
2018-12-06T07:48:12.529Z,8.00
2018-12-06T07:50:41.379Z,8.10
2018-12-06T07:53:12.190Z,8.20
2018-12-06T07:55:41.012Z,8.10
2018-12-06T07:58:09.820Z,8.10
2018-12-06T08:00:44.070Z,8.10
2018-12-06T08:03:13.215Z,8.00
2018-12-06T08:05:42.029Z,8.10
2018-12-06T08:08:15.333Z,8.10
2018-12-06T08:10:45.944Z,8.20
2018-12-06T08:13:14.754Z,8.30
2018-12-06T08:15:43.641Z,8.30
2018-12-06T08:18:12.463Z,8.30
2018-12-06T08:20:41.239Z,8.30
2018-12-06T08:23:10.095Z,8.30
2018-12-06T08:25:38.901Z,8.20
2018-12-06T08:28:07.750Z,8.20
2018-12-06T08:30:37.842Z,8.20
2018-12-06T08:33:08.322Z,8.30
2018-12-06T08:35:37.227Z,8.40
2018-12-06T08:38:06.706Z,8.50
2018-12-06T08:40:35.573Z,8.60
2018-12-06T08:43:04.568Z,8.60
2018-12-06T08:45:33.442Z,8.80
2018-12-06T08:48:02.318Z,8.90
2018-12-06T08:50:33.233Z,9.00
2018-12-06T08:53:02.382Z,9.10
2018-12-06T08:55:31.200Z,9.20
2018-12-06T08:58:00.727Z,9.30
2018-12-06T09:00:29.640Z,9.40
2018-12-06T09:02:58.810Z,9.50
2018-12-06T09:05:28.506Z,9.50
2018-12-06T09:07:57.373Z,9.60
2018-12-06T09:10:30.600Z,9.60
2018-12-06T09:12:59.498Z,9.60
2018-12-06T09:15:28.327Z,9.50
2018-12-06T09:17:57.224Z,9.40
2018-12-06T09:20:26.042Z,9.40
2018-12-06T09:22:55.218Z,9.30
2018-12-06T09:25:25.780Z,9.40
2018-12-06T09:27:54.664Z,9.40
2018-12-06T09:30:23.462Z,9.40
2018-12-06T09:32:52.538Z,9.30
2018-12-06T09:35:21.404Z,9.40
2018-12-06T09:37:50.332Z,9.30
2018-12-06T09:40:20.814Z,9.30
2018-12-06T09:42:49.682Z,9.30
2018-12-06T09:45:18.482Z,9.40
2018-12-06T09:47:47.310Z,9.30
2018-12-06T09:50:16.167Z,9.40
2018-12-06T09:52:46.080Z,9.40
2018-12-06T09:55:19.396Z,9.40
2018-12-06T09:57:48.305Z,9.40
2018-12-06T10:00:17.663Z,9.50
2018-12-06T10:02:47.539Z,9.40
2018-12-06T10:05:16.337Z,9.50
2018-12-06T10:07:45.978Z,9.50
2018-12-06T10:10:19.167Z,9.40
2018-12-06T10:12:48.653Z,9.50
2018-12-06T10:15:17.449Z,9.50
2018-12-06T10:17:46.274Z,9.50
2018-12-06T10:20:15.213Z,9.60
2018-12-06T10:22:44.194Z,9.70
2018-12-06T10:25:13.024Z,9.70
2018-12-06T10:27:41.897Z,9.90
2018-12-06T10:30:10.805Z,10.00
2018-12-06T10:32:39.744Z,10.10
2018-12-06T10:35:08.694Z,10.20
2018-12-06T10:37:37.505Z,10.20
2018-12-06T10:40:07.223Z,10.10
2018-12-06T10:42:36.020Z,10.10
2018-12-06T10:45:10.027Z,10.20
2018-12-06T10:47:39.877Z,10.30
2018-12-06T10:50:08.703Z,10.40
2018-12-06T10:52:37.610Z,10.50
2018-12-06T10:55:07.221Z,10.70
2018-12-06T10:57:37.699Z,10.90
2018-12-06T11:00:09.043Z,11.10
2018-12-06T11:02:47.236Z,11.40
2018-12-06T11:05:21.157Z,11.70
2018-12-06T11:07:52.136Z,12.20
2018-12-06T11:10:23.260Z,12.40
2018-12-06T11:12:54.128Z,12.50
2018-12-06T11:15:27.403Z,12.60
2018-12-06T11:17:58.992Z,12.60
2018-12-06T11:20:27.820Z,12.70
2018-12-06T11:22:56.668Z,12.80
2018-12-06T11:25:25.481Z,12.90
2018-12-06T11:27:54.294Z,13.10
2018-12-06T11:30:23.084Z,13.10
2018-12-06T11:32:51.975Z,13.20
2018-12-06T11:35:21.112Z,13.40
2018-12-06T11:37:50.026Z,13.60
2018-12-06T11:40:18.922Z,13.80
2018-12-06T11:42:47.888Z,13.90
2018-12-06T11:45:16.784Z,14.00
2018-12-06T11:47:45.654Z,14.20
2018-12-06T11:50:14.589Z,14.50
2018-12-06T11:52:43.523Z,14.50
2018-12-06T11:55:12.476Z,14.40
2018-12-06T11:57:41.360Z,14.20
2018-12-06T12:00:10.353Z,14.00
2018-12-06T12:02:39.336Z,13.90
2018-12-06T12:05:08.351Z,13.80
2018-12-06T12:07:37.489Z,13.80
2018-12-06T12:10:06.613Z,13.80
2018-12-06T12:12:35.517Z,13.70
2018-12-06T12:15:07.240Z,13.60
2018-12-06T12:17:36.051Z,13.70
2018-12-06T12:20:05.757Z,13.80
2018-12-06T12:22:34.558Z,13.90
2018-12-06T12:25:03.949Z,13.90
2018-12-06T12:27:33.039Z,14.00
2018-12-06T12:30:01.867Z,14.00
2018-12-06T12:32:30.679Z,14.00
2018-12-06T12:34:59.489Z,14.00
2018-12-06T12:37:28.387Z,14.00
2018-12-06T12:39:57.605Z,13.90
2018-12-06T12:42:26.481Z,13.80
2018-12-06T12:44:55.298Z,13.60
2018-12-06T12:47:24.117Z,13.60
2018-12-06T12:49:52.981Z,13.50
2018-12-06T12:52:21.810Z,13.50
2018-12-06T12:54:50.679Z,13.40
2018-12-06T12:57:22.101Z,13.30
2018-12-06T12:59:50.933Z,13.10
2018-12-06T13:02:21.889Z,13.00
2018-12-06T13:04:50.701Z,13.00
2018-12-06T13:07:19.525Z,12.90
2018-12-06T13:09:48.384Z,12.90
2018-12-06T13:12:17.207Z,13.00
2018-12-06T13:14:49.677Z,13.00
2018-12-06T13:17:18.485Z,13.00
2018-12-06T13:19:47.302Z,13.00
2018-12-06T13:22:16.271Z,13.00
2018-12-06T13:24:45.263Z,13.00
2018-12-06T13:27:14.081Z,13.00
2018-12-06T13:29:42.865Z,13.10
2018-12-06T13:32:11.656Z,13.30
2018-12-06T13:34:41.283Z,13.40
2018-12-06T13:37:10.171Z,13.40
2018-12-06T13:39:39.309Z,13.40
2018-12-06T13:42:08.181Z,13.40
2018-12-06T13:44:37.004Z,13.40
2018-12-06T13:47:05.811Z,13.40
2018-12-06T13:49:36.837Z,13.40
2018-12-06T13:52:05.994Z,13.40
2018-12-06T13:54:35.069Z,13.40
2018-12-06T13:57:04.033Z,13.40
2018-12-06T13:59:34.976Z,13.40
2018-12-06T14:02:03.795Z,13.40
2018-12-06T14:04:32.727Z,13.40
2018-12-06T14:07:01.560Z,13.40
2018-12-06T14:09:30.375Z,13.40
2018-12-06T14:11:59.167Z,13.40
2018-12-06T14:14:28.037Z,13.30
2018-12-06T14:16:56.863Z,13.30
2018-12-06T14:19:25.829Z,13.20
2018-12-06T14:21:54.718Z,13.20
2018-12-06T14:24:23.517Z,13.10
2018-12-06T14:26:52.352Z,13.10
2018-12-06T14:29:21.309Z,13.10
2018-12-06T14:31:50.094Z,13.10
2018-12-06T14:34:18.908Z,13.00
2018-12-06T14:36:47.730Z,13.00
2018-12-06T14:39:16.658Z,13.00
2018-12-06T14:41:45.456Z,12.90
2018-12-06T14:44:19.646Z,12.90
2018-12-06T14:46:48.473Z,12.90
2018-12-06T14:49:17.302Z,12.80
2018-12-06T14:51:46.192Z,12.80
2018-12-06T14:54:15.010Z,12.80
2018-12-06T14:56:43.900Z,12.80
2018-12-06T14:59:12.709Z,12.80
2018-12-06T15:01:41.504Z,12.80
2018-12-06T15:04:10.344Z,12.80
2018-12-06T15:06:39.159Z,12.70
2018-12-06T15:09:08.695Z,12.70
2018-12-06T15:11:37.554Z,12.70
2018-12-06T15:14:06.384Z,12.70
2018-12-06T15:16:35.291Z,12.60
2018-12-06T15:19:04.211Z,12.60
2018-12-06T15:21:33.025Z,12.60
2018-12-06T15:24:02.050Z,12.50
2018-12-06T15:26:31.334Z,12.50
2018-12-06T15:29:00.129Z,12.40
2018-12-06T15:31:28.958Z,12.40
2018-12-06T15:33:57.871Z,12.30
2018-12-06T15:36:27.856Z,12.30
2018-12-06T15:38:56.904Z,12.30
2018-12-06T15:41:25.759Z,12.30
2018-12-06T15:43:54.581Z,12.20
2018-12-06T15:46:23.422Z,12.20
2018-12-06T15:48:52.217Z,12.20
2018-12-06T15:51:21.029Z,12.10
2018-12-06T15:53:49.864Z,12.10
2018-12-06T15:56:18.783Z,12.00
2018-12-06T15:58:47.567Z,12.00
2018-12-06T16:01:16.430Z,12.00
2018-12-06T16:03:45.415Z,11.90
2018-12-06T16:06:14.346Z,11.80
2018-12-06T16:08:43.156Z,11.80
2018-12-06T16:11:12.051Z,11.80
2018-12-06T16:13:40.924Z,11.70
2018-12-06T16:16:09.757Z,11.70
2018-12-06T16:18:38.566Z,11.70
2018-12-06T16:21:08.171Z,11.70
2018-12-06T16:23:37.015Z,11.70
2018-12-06T16:26:05.883Z,11.70
2018-12-06T16:28:34.713Z,11.70
2018-12-06T16:31:06.616Z,11.70
2018-12-06T16:33:35.430Z,11.70
2018-12-06T16:36:04.234Z,11.60
2018-12-06T16:38:33.152Z,11.60
2018-12-06T16:41:02.012Z,11.60
2018-12-06T16:43:30.953Z,11.60
2018-12-06T16:45:59.822Z,11.60
2018-12-06T16:48:28.656Z,11.70
2018-12-06T16:50:57.611Z,11.70
2018-12-06T16:53:27.415Z,11.70
2018-12-06T16:55:56.290Z,11.80
2018-12-06T16:58:25.095Z,11.80
2018-12-06T17:00:53.911Z,11.80
2018-12-06T17:03:22.811Z,11.80
2018-12-06T17:05:55.041Z,11.80
2018-12-06T17:08:25.431Z,11.80
2018-12-06T17:10:54.271Z,11.80
2018-12-06T17:13:24.369Z,11.80
2018-12-06T17:15:53.274Z,11.80
2018-12-06T17:18:22.141Z,11.80
2018-12-06T17:20:51.058Z,11.80
2018-12-06T17:23:19.939Z,11.80
2018-12-06T17:25:48.751Z,11.90
2018-12-06T17:28:18.239Z,11.90
2018-12-06T17:30:52.085Z,11.90
2018-12-06T17:33:21.224Z,12.00
2018-12-06T17:35:50.402Z,12.00
2018-12-06T17:38:19.271Z,12.00
2018-12-06T17:40:49.186Z,12.00
2018-12-06T17:43:18.751Z,12.00
2018-12-06T17:45:51.927Z,12.10
2018-12-06T17:48:20.714Z,12.10
2018-12-06T17:50:51.322Z,12.10
2018-12-06T17:53:20.218Z,12.10
2018-12-06T17:55:54.773Z,12.00
2018-12-06T17:58:23.743Z,12.00
2018-12-06T18:00:54.686Z,12.00
2018-12-06T18:03:23.939Z,12.00
2018-12-06T18:05:52.774Z,12.00
2018-12-06T18:08:21.680Z,12.00
2018-12-06T18:10:50.516Z,12.00
2018-12-06T18:13:19.412Z,12.00
2018-12-06T18:15:48.363Z,12.00
2018-12-06T18:18:17.152Z,12.00
2018-12-06T18:20:45.954Z,12.00
2018-12-06T18:23:14.878Z,12.00
2018-12-06T18:25:45.390Z,12.00
2018-12-06T18:28:14.284Z,12.00
2018-12-06T18:30:43.090Z,11.90
2018-12-06T18:33:12.587Z,12.00
2018-12-06T18:35:41.562Z,12.00
2018-12-06T18:38:10.401Z,12.00
2018-12-06T18:40:39.248Z,12.00
2018-12-06T18:43:08.462Z,12.00
2018-12-06T18:45:37.270Z,12.00
2018-12-06T18:48:06.158Z,12.00
2018-12-06T18:50:34.979Z,12.00
2018-12-06T18:53:03.926Z,12.00
2018-12-06T18:55:35.382Z,12.00
2018-12-06T18:58:04.257Z,12.00
2018-12-06T19:00:33.130Z,12.00
2018-12-06T19:03:01.971Z,12.00
2018-12-06T19:05:30.842Z,12.00
2018-12-06T19:07:59.696Z,12.00
2018-12-06T19:10:28.504Z,12.10
2018-12-06T19:12:57.375Z,12.10
2018-12-06T19:15:29.840Z,12.10
2018-12-06T19:17:58.796Z,12.20
2018-12-06T19:20:27.795Z,12.20
2018-12-06T19:22:56.831Z,12.20
2018-12-06T19:25:25.812Z,12.20
2018-12-06T19:27:54.638Z,12.20
2018-12-06T19:30:23.536Z,12.30
2018-12-06T19:32:57.804Z,12.30
2018-12-06T19:35:23.447Z,12.30
2018-12-06T19:37:52.230Z,12.30
2018-12-06T19:40:21.025Z,12.40
2018-12-06T19:42:51.459Z,12.40
2018-12-06T19:45:20.544Z,12.30
2018-12-06T19:47:49.353Z,12.40
2018-12-06T19:50:18.151Z,12.40
2018-12-06T19:52:47.015Z,12.50
2018-12-06T19:55:15.949Z,12.50
2018-12-06T19:57:44.845Z,12.50
2018-12-06T20:00:15.770Z,12.50
2018-12-06T20:02:44.689Z,12.60
2018-12-06T20:05:13.817Z,12.60
2018-12-06T20:07:42.791Z,12.60
2018-12-06T20:10:11.793Z,12.60
2018-12-06T20:12:41.601Z,12.60
2018-12-06T20:15:10.611Z,12.60
2018-12-06T20:17:39.417Z,12.60
2018-12-06T20:20:08.565Z,12.60
2018-12-06T20:22:37.567Z,12.70
2018-12-06T20:25:06.843Z,12.70
2018-12-06T20:27:35.807Z,12.70
2018-12-06T20:30:06.031Z,12.70
2018-12-06T20:32:34.912Z,12.80
2018-12-06T20:35:04.132Z,12.80
2018-12-06T20:37:33.512Z,12.80
2018-12-06T20:40:02.312Z,12.80
2018-12-06T20:42:31.267Z,12.80
2018-12-06T20:45:00.081Z,12.80
2018-12-06T20:47:28.961Z,12.80
2018-12-06T20:49:57.777Z,12.70
2018-12-06T20:52:26.605Z,12.70
2018-12-06T20:54:55.457Z,12.70
2018-12-06T20:57:24.259Z,12.70
2018-12-06T20:59:54.395Z,12.70
2018-12-06T21:02:23.233Z,12.70
2018-12-06T21:04:52.043Z,12.70
2018-12-06T21:07:20.863Z,12.70
2018-12-06T21:09:49.692Z,12.70
2018-12-06T21:12:18.523Z,12.80
2018-12-06T21:14:47.335Z,12.80
2018-12-06T21:17:16.141Z,12.80
2018-12-06T21:19:44.973Z,12.80
2018-12-06T21:22:13.795Z,12.80
2018-12-06T21:24:42.621Z,12.80
2018-12-06T21:27:11.526Z,12.80
2018-12-06T21:29:40.425Z,12.90
2018-12-06T21:32:09.350Z,12.90
2018-12-06T21:34:38.234Z,12.90
2018-12-06T21:37:07.117Z,12.90
2018-12-06T21:39:36.610Z,12.90
2018-12-06T21:42:05.458Z,12.90
2018-12-06T21:44:35.620Z,12.90
2018-12-06T21:47:05.618Z,12.80
2018-12-06T21:49:34.500Z,12.80
2018-12-06T21:52:03.302Z,12.80
2018-12-06T21:54:32.175Z,12.80
2018-12-06T21:57:01.219Z,12.80
2018-12-06T21:59:31.043Z,12.80
2018-12-06T22:02:11.040Z,12.80
2018-12-06T22:04:39.862Z,12.80
2018-12-06T22:07:08.676Z,12.80
2018-12-06T22:09:37.497Z,12.80
2018-12-06T22:12:06.321Z,12.80
2018-12-06T22:14:35.150Z,12.80
2018-12-06T22:17:04.389Z,12.80
2018-12-06T22:19:33.205Z,12.80
2018-12-06T22:22:02.100Z,12.80
2018-12-06T22:24:30.934Z,12.80
2018-12-06T22:26:59.754Z,12.80
2018-12-06T22:29:28.720Z,12.90
2018-12-06T22:31:57.547Z,12.90
2018-12-06T22:34:26.357Z,12.90
2018-12-06T22:36:55.239Z,12.90
2018-12-06T22:39:24.123Z,12.90
2018-12-06T22:41:53.039Z,12.90
2018-12-06T22:44:21.859Z,13.00
2018-12-06T22:46:50.673Z,13.00
2018-12-06T22:49:19.495Z,13.00
2018-12-06T22:51:48.687Z,13.00
2018-12-06T22:54:17.507Z,13.10
2018-12-06T22:56:46.510Z,13.10
2018-12-06T22:59:15.481Z,13.10
2018-12-06T23:01:45.061Z,13.10
2018-12-06T23:04:14.433Z,13.10
2018-12-06T23:06:43.325Z,13.10
2018-12-06T23:09:12.159Z,13.10
2018-12-06T23:11:41.219Z,13.10
2018-12-06T23:14:10.099Z,13.10
2018-12-06T23:16:39.176Z,13.10
2018-12-06T23:19:08.123Z,13.00
2018-12-06T23:21:37.007Z,13.10
2018-12-06T23:24:05.817Z,13.10
2018-12-06T23:26:34.632Z,13.10
2018-12-06T23:29:03.526Z,13.10
2018-12-06T23:31:32.345Z,13.10
2018-12-06T23:34:01.179Z,13.10
2018-12-06T23:36:29.997Z,13.10
2018-12-06T23:38:58.822Z,13.10
2018-12-06T23:41:27.644Z,13.10
2018-12-06T23:43:56.436Z,13.00
2018-12-06T23:46:25.251Z,13.00
2018-12-06T23:48:54.579Z,13.00
2018-12-06T23:51:34.693Z,12.90
2018-12-06T23:54:04.488Z,12.90
2018-12-06T23:56:33.299Z,12.90
2018-12-06T23:59:02.121Z,12.80
